Time;durP1;ratioP1;P1;durP2;ratioP2;P2;SDS_P1;SDS_P2;PMS_P1;PMS_P2;Temp;Humidity;BMP_temperature;BMP_pressure;BME280_temperature;BME280_humidity;BME280_pressure;Samples;Min_cycle;Max_cycle;Signal;HPM_P1;HPM_P2
2022/04/11 00:01:33;;;;;;;1.10;0.60;;;;;;;7.64;49.88;99696.98;117307;1186;23554;-48
2022/04/11 00:04:01;;;;;;;1.50;0.70;;;;;;;7.66;50.06;99691.02;117197;1186;22614;-48
2022/04/11 00:06:50;;;;;;;1.50;0.70;;;;;;;7.67;50.00;99682.63;117103;1186;22071;-59
2022/04/11 00:09:21;;;;;;;0.70;0.60;;;;;;;7.68;49.98;99687.33;117236;1185;21849;-48
2022/04/11 00:11:51;;;;;;;0.80;0.60;;;;;;;7.68;50.22;99695.71;117296;1186;23576;-59
2022/04/11 00:14:21;;;;;;;2.10;0.50;;;;;;;7.69;50.19;99706.70;117259;1186;21855;-59
2022/04/11 00:16:50;;;;;;;0.80;0.50;;;;;;;7.72;50.00;99717.15;117248;1185;22816;-59
2022/04/11 00:19:19;;;;;;;0.50;0.40;;;;;;;7.76;49.96;99721.82;117246;1186;21919;-59
2022/04/11 00:22:08;;;;;;;0.80;0.60;;;;;;;7.75;50.04;99723.56;117185;1188;21853;-48
2022/04/11 00:24:37;;;;;;;0.90;0.60;;;;;;;7.74;49.76;99724.80;117389;1185;23632;-59
2022/04/11 00:27:25;;;;;;;2.10;0.60;;;;;;;7.75;50.05;99727.05;117202;1188;21873;-59
2022/04/11 00:29:54;;;;;;;0.70;0.60;;;;;;;7.73;49.88;99715.73;117292;1186;21913;-48
2022/04/11 00:32:45;;;;;;;1.60;0.70;;;;;;;7.69;50.07;99711.60;117245;1185;21941;-57
2022/04/11 00:35:15;;;;;;;1.70;0.90;;;;;;;7.67;50.07;99706.90;117241;1186;23552;-57
2022/04/11 00:37:43;;;;;;;1.80;0.80;;;;;;;7.66;50.16;99711.80;117270;1185;23600;-57
2022/04/11 00:40:19;;;;;;;1.30;0.80;;;;;;;7.66;49.86;99713.02;117261;1185;23646;-57
2022/04/11 00:42:50;;;;;;;1.20;0.70;;;;;;;7.68;50.27;99711.42;117338;1186;21946;-57
2022/04/11 00:45:19;;;;;;;2.40;1.00;;;;;;;7.69;50.23;99716.14;117270;1186;23578;-46
2022/04/11 00:47:54;;;;;;;2.40;1.70;;;;;;;7.70;50.31;99721.90;117230;1186;23258;-46
2022/04/11 00:50:23;;;;;;;1.50;0.80;;;;;;;7.71;50.29;99726.42;117273;1186;21850;-60
2022/04/11 00:52:53;;;;;;;1.50;1.00;;;;;;;7.73;50.08;99727.27;117248;1186;23575;-49
2022/04/11 00:55:23;;;;;;;2.00;0.90;;;;;;;7.77;50.27;99717.09;117263;1183;21858;-59
2022/04/11 00:57:54;;;;;;;2.20;0.90;;;;;;;7.80;50.28;99710.77;117241;1186;21839;-49
2022/04/11 01:00:23;;;;;;;1.50;0.90;;;;;;;7.81;50.36;99711.80;117234;1186;23548;-60
2022/04/11 01:02:51;;;;;;;1.80;1.10;;;;;;;7.81;50.42;99711.63;117390;1185;23552;-59
2022/04/11 01:05:23;;;;;;;1.60;1.10;;;;;;;7.82;50.41;99713.72;117252;1185;21842;-46
2022/04/11 01:08:05;;;;;;;1.30;1.00;;;;;;;7.81;50.15;99710.76;117208;1186;21836;-46
2022/04/11 01:10:35;;;;;;;3.40;1.30;;;;;;;7.80;50.34;99707.27;117269;1185;22931;-46
2022/04/11 01:13:04;;;;;;;2.20;0.90;;;;;;;7.80;50.33;99709.90;117261;1186;23550;-57
2022/04/11 01:15:33;;;;;;;2.80;1.10;;;;;;;7.82;50.35;99719.14;117193;1185;23576;-57
2022/04/11 01:18:03;;;;;;;1.70;1.20;;;;;;;7.82;50.24;99725.95;117237;1186;23590;-46
2022/04/11 01:20:32;;;;;;;1.90;1.20;;;;;;;7.83;50.41;99730.46;117247;1186;23253;-57
2022/04/11 01:23:14;;;;;;;2.10;1.10;;;;;;;7.86;50.48;99732.89;117199;1185;21851;-57
2022/04/11 01:25:42;;;;;;;3.50;1.10;;;;;;;7.87;50.47;99730.25;117248;1186;23577;-57
2022/04/11 01:28:11;;;;;;;1.60;1.00;;;;;;;7.88;50.45;99738.63;117345;1186;23541;-57
2022/04/11 01:30:40;;;;;;;1.60;1.10;;;;;;;7.90;50.17;99742.80;117258;1186;23634;-57
2022/04/11 01:33:35;;;;;;;1.60;1.30;;;;;;;7.90;50.44;99744.20;117267;1185;21901;-57
2022/04/11 01:36:05;;;;;;;2.50;1.30;;;;;;;7.91;50.34;99741.92;117272;1185;23487;-56
2022/04/11 01:38:34;;;;;;;3.70;1.30;;;;;;;7.92;50.07;99744.36;117407;1184;23561;-46
2022/04/11 01:41:04;;;;;;;2.20;1.40;;;;;;;7.95;50.33;99742.04;117314;1184;22313;-47
2022/04/11 01:43:33;;;;;;;2.50;1.30;;;;;;;7.97;50.51;99748.81;117282;1186;23551;-56
2022/04/11 01:46:01;;;;;;;2.30;1.30;;;;;;;7.98;50.33;99763.67;117386;1186;22896;-56
2022/04/11 01:48:30;;;;;;;3.50;1.90;;;;;;;7.97;50.35;99776.78;117287;1186;23553;-47
2022/04/11 01:50:59;;;;;;;2.40;1.60;;;;;;;7.96;50.47;99786.73;117293;1186;23646;-46
2022/04/11 01:53:28;;;;;;;2.80;1.80;;;;;;;7.97;50.25;99792.15;117281;1186;23554;-46
2022/04/11 01:55:57;;;;;;;2.40;1.60;;;;;;;7.97;50.47;99798.27;117379;1186;23548;-46
2022/04/11 01:58:25;;;;;;;2.70;1.80;;;;;;;7.97;50.14;99811.02;117373;1186;21854;-47
2022/04/11 02:00:55;;;;;;;2.60;1.60;;;;;;;7.97;50.17;99811.37;117282;1186;22839;-47
2022/04/11 02:03:23;;;;;;;2.40;1.40;;;;;;;7.96;50.37;99813.48;117222;1186;23531;-47
2022/04/11 02:05:52;;;;;;;2.70;1.50;;;;;;;7.96;50.39;99813.30;117299;1185;23563;-57
2022/04/11 02:08:28;;;;;;;4.10;2.10;;;;;;;7.97;50.35;99816.96;117237;1185;23577;-58
2022/04/11 02:11:16;;;;;;;3.10;1.90;;;;;;;8.00;50.56;99816.76;117164;1186;24245;-48
2022/04/11 02:13:45;;;;;;;2.60;1.50;;;;;;;8.01;50.26;99824.95;117350;1186;23553;-48
2022/04/11 02:16:33;;;;;;;2.40;1.50;;;;;;;8.06;50.48;99822.10;117247;1186;21857;-58
2022/04/11 02:19:02;;;;;;;3.30;1.70;;;;;;;8.10;50.30;99829.06;117305;1185;23544;-58
2022/04/11 02:21:34;;;;;;;2.40;1.60;;;;;;;8.13;50.34;99831.48;117235;1186;22864;-48
2022/04/11 02:24:04;;;;;;;4.40;1.80;;;;;;;8.17;50.33;99837.19;117144;1186;23600;-48
2022/04/11 02:26:32;;;;;;;3.90;2.00;;;;;;;8.19;50.01;99841.88;117297;1186;21875;-58
2022/04/11 02:29:01;;;;;;;3.30;2.50;;;;;;;8.22;50.53;99840.98;117287;1186;22641;-50
2022/04/11 02:31:30;;;;;;;3.10;2.00;;;;;;;8.25;50.33;99834.83;117353;1186;21865;-49
2022/04/11 02:33:59;;;;;;;3.70;2.10;;;;;;;8.28;50.17;99829.73;117297;1186;21854;-49
2022/04/11 02:36:28;;;;;;;5.00;2.20;;;;;;;8.29;50.25;99829.19;117293;1185;22620;-49
2022/04/11 02:38:57;;;;;;;3.90;2.20;;;;;;;8.30;50.26;99827.08;117275;1186;22807;-57
2022/04/11 02:41:26;;;;;;;3.10;2.20;;;;;;;8.36;50.16;99823.01;117182;1186;23202;-57
2022/04/11 02:43:55;;;;;;;3.30;2.10;;;;;;;8.37;50.25;99812.69;117186;1185;21847;-48
2022/04/11 02:46:23;;;;;;;3.50;2.30;;;;;;;8.38;50.17;99805.14;117214;1186;21850;-48
2022/04/11 02:48:52;;;;;;;4.60;2.30;;;;;;;8.41;50.28;99800.72;117191;1186;22910;-48
2022/04/11 02:51:22;;;;;;;5.00;2.20;;;;;;;8.43;50.25;99797.55;117240;1188;21857;-58
2022/04/11 02:53:51;;;;;;;2.60;1.90;;;;;;;8.47;50.27;99791.23;117165;1186;22913;-58
2022/04/11 02:56:20;;;;;;;3.90;2.30;;;;;;;8.51;50.44;99790.48;117183;1185;23576;-57
2022/04/11 02:58:48;;;;;;;4.20;1.90;;;;;;;8.55;50.46;99796.56;117227;1185;23602;-48
2022/04/11 03:01:17;;;;;;;3.50;2.00;;;;;;;8.60;50.40;99806.64;117142;1186;22804;-48
2022/04/11 03:03:46;;;;;;;4.50;2.10;;;;;;;8.62;50.34;99805.20;117153;1186;22630;-49
2022/04/11 03:06:15;;;;;;;3.80;2.40;;;;;;;8.63;50.18;99813.94;117185;1185;23550;-48
2022/04/11 03:08:44;;;;;;;3.90;1.90;;;;;;;8.63;50.29;99819.01;117117;1186;23264;-58
2022/04/11 03:11:13;;;;;;;4.90;2.20;;;;;;;8.61;50.33;99826.37;117107;1185;22985;-57
2022/04/11 03:13:48;;;;;;;3.30;2.20;;;;;;;8.63;50.27;99826.00;117216;1186;22628;-47
2022/04/11 03:16:31;;;;;;;3.00;2.10;;;;;;;8.64;50.29;99828.09;117132;1185;23556;-56
2022/04/11 03:18:59;;;;;;;7.10;2.40;;;;;;;8.65;50.34;99828.61;117194;1186;21956;-48
2022/04/11 03:21:28;;;;;;;3.80;2.40;;;;;;;8.69;50.30;99822.61;117155;1186;22839;-57
2022/04/11 03:23:57;;;;;;;6.00;2.10;;;;;;;8.73;50.38;99818.02;117276;1186;23005;-49
2022/04/11 03:26:26;;;;;;;11.30;2.10;;;;;;;8.71;50.24;99815.59;117293;1186;23450;-57
2022/04/11 03:28:55;;;;;;;4.50;2.10;;;;;;;8.71;50.25;99820.66;117274;1186;23577;-58
2022/04/11 03:31:23;;;;;;;3.40;1.90;;;;;;;8.70;50.27;99834.31;117189;1185;22808;-58
2022/04/11 03:33:54;;;;;;;7.00;2.90;;;;;;;8.68;50.33;99852.53;117166;1186;21860;-58
2022/04/11 03:36:24;;;;;;;2.90;2.00;;;;;;;8.67;50.33;99861.46;117286;1186;22646;-49
2022/04/11 03:38:53;;;;;;;4.50;1.80;;;;;;;8.65;50.35;99861.14;117294;1185;21898;-59
2022/04/11 03:41:21;;;;;;;3.20;1.80;;;;;;;8.61;50.51;99861.71;117267;1182;21976;-49
2022/04/11 03:43:52;;;;;;;4.60;2.20;;;;;;;8.64;50.65;99866.92;117293;1188;21905;-48
2022/04/11 03:46:20;;;;;;;5.90;2.10;;;;;;;8.71;50.61;99872.96;117399;1186;23646;-58
2022/04/11 03:48:50;;;;;;;6.80;2.70;;;;;;;8.71;50.70;99876.62;117276;1187;21856;-48
2022/04/11 03:51:20;;;;;;;4.60;2.20;;;;;;;8.74;50.67;99885.16;117290;1185;21860;-50
2022/04/11 03:53:48;;;;;;;6.50;2.60;;;;;;;8.79;50.62;99885.61;117393;1186;21849;-60
2022/04/11 03:56:17;;;;;;;9.40;2.50;;;;;;;8.87;50.47;99891.13;117347;1186;23566;-48
2022/04/11 03:58:47;;;;;;;7.70;2.30;;;;;;;8.89;50.48;99884.63;117302;1186;23578;-59
2022/04/11 04:01:15;;;;;;;7.50;2.60;;;;;;;8.93;50.55;99887.89;117348;1185;21890;-60
2022/04/11 04:03:44;;;;;;;4.70;2.50;;;;;;;8.96;50.47;99891.70;117338;1185;23658;-60
2022/04/11 04:06:13;;;;;;;8.70;2.60;;;;;;;8.97;50.44;99890.47;117318;1185;21879;-48
2022/04/11 04:08:41;;;;;;;4.90;2.40;;;;;;;8.96;50.57;99895.20;117344;1186;22808;-58
2022/04/11 04:11:10;;;;;;;3.50;2.10;;;;;;;8.97;50.47;99900.61;117359;1186;23547;-48
2022/04/11 04:13:43;;;;;;;3.90;2.20;;;;;;;8.90;50.55;99899.84;117271;1186;24173;-58
2022/04/11 04:16:31;;;;;;;6.60;2.80;;;;;;;8.83;50.37;99902.71;117244;1186;21889;-48
2022/04/11 04:19:00;;;;;;;4.30;2.30;;;;;;;8.78;50.56;99895.25;117264;1185;23588;-59
2022/04/11 04:21:29;;;;;;;5.50;2.20;;;;;;;8.76;50.52;99891.44;117305;1186;23585;-49
2022/04/11 04:23:57;;;;;;;3.90;2.50;;;;;;;8.74;50.46;99884.30;117253;1185;23566;-49
2022/04/11 04:26:26;;;;;;;4.80;2.50;;;;;;;8.75;50.74;99874.47;117229;1186;23563;-48
2022/04/11 04:28:54;;;;;;;5.50;3.10;;;;;;;8.76;50.51;99870.97;117200;1185;23579;-58
2022/04/11 04:31:22;;;;;;;3.90;2.20;;;;;;;8.78;50.51;99862.20;117335;1185;23598;-48
2022/04/11 04:33:54;;;;;;;3.70;2.00;;;;;;;8.78;50.70;99856.95;117233;1186;21855;-49
2022/04/11 04:36:23;;;;;;;5.30;2.30;;;;;;;8.81;50.61;99857.81;117286;1185;23576;-58
2022/04/11 04:38:52;;;;;;;3.40;2.20;;;;;;;8.81;50.59;99862.17;117229;1185;23617;-58
2022/04/11 04:41:21;;;;;;;3.90;2.60;;;;;;;8.83;50.62;99868.09;117277;1185;23557;-49
2022/04/11 04:43:49;;;;;;;2.80;1.90;;;;;;;8.85;50.71;99877.67;117262;1186;23597;-48
2022/04/11 04:46:18;;;;;;;3.90;1.90;;;;;;;8.87;50.71;99895.14;117208;1186;23554;-57
2022/04/11 04:48:48;;;;;;;3.60;2.20;;;;;;;8.90;50.63;99899.13;117289;1185;23604;-58
2022/04/11 04:51:18;;;;;;;4.00;2.30;;;;;;;8.95;50.56;99901.34;117063;1186;23458;-58
2022/04/11 04:53:50;;;;;;;3.30;2.00;;;;;;;8.99;50.71;99896.05;117081;1186;22891;-58
2022/04/11 04:56:20;;;;;;;2.80;1.80;;;;;;;9.02;50.61;99890.23;117087;1185;21845;-58
2022/04/11 04:58:51;;;;;;;3.60;2.10;;;;;;;9.03;50.60;99888.81;117317;1185;22950;-57
2022/04/11 05:01:21;;;;;;;4.40;2.40;;;;;;;9.04;50.59;99887.05;117209;1185;21847;-58
2022/04/11 05:03:50;;;;;;;2.90;1.80;;;;;;;9.05;50.66;99890.17;117228;1183;21871;-57
2022/04/11 05:06:20;;;;;;;4.00;2.00;;;;;;;9.04;50.58;99898.26;117084;1184;22509;-57
2022/04/11 05:08:49;;;;;;;3.50;1.90;;;;;;;9.03;50.63;99900.89;117285;1186;22934;-59
2022/04/11 05:11:20;;;;;;;3.50;2.10;;;;;;;9.04;50.78;99908.76;117319;1186;22831;-59
2022/04/11 05:13:49;;;;;;;3.40;2.00;;;;;;;9.05;50.81;99913.63;117245;1185;22624;-58
2022/04/11 05:16:24;;;;;;;3.40;2.10;;;;;;;9.05;50.80;99914.86;117746;1185;23584;-49
2022/04/11 05:18:56;;;;;;;3.30;1.70;;;;;;;9.06;50.69;99911.86;117617;1185;21896;-49
2022/04/11 05:21:44;;;;;;;2.90;1.70;;;;;;;9.09;50.80;99905.69;117225;1186;21857;-57
2022/04/11 05:24:14;;;;;;;4.50;2.20;;;;;;;9.10;50.73;99906.56;117299;1186;23569;-48
2022/04/11 05:26:42;;;;;;;3.70;1.90;;;;;;;9.12;50.68;99911.26;117346;1186;21846;-57
2022/04/11 05:29:12;;;;;;;2.70;1.80;;;;;;;9.15;50.77;99916.30;117246;1186;22807;-57
2022/04/11 05:31:41;;;;;;;3.40;2.00;;;;;;;9.16;50.79;99918.38;117277;1185;21866;-57
2022/04/11 05:34:09;;;;;;;3.20;2.00;;;;;;;9.20;50.80;99918.15;117291;1185;23547;-48
2022/04/11 05:36:38;;;;;;;3.30;1.80;;;;;;;9.22;50.89;99917.43;117307;1187;21849;-48
2022/04/11 05:39:07;;;;;;;2.70;1.50;;;;;;;9.24;50.97;99921.09;117224;1186;23574;-58
2022/04/11 05:41:37;;;;;;;4.00;2.00;;;;;;;9.27;50.89;99918.05;117650;1186;22650;-58
2022/04/11 05:44:05;;;;;;;3.40;1.60;;;;;;;9.32;50.97;99909.58;118522;1184;21921;-50
2022/04/11 05:46:34;;;;;;;5.40;2.10;;;;;;;9.41;51.02;99917.86;117257;1186;23552;-50
2022/04/11 05:49:09;;;;;;;4.90;2.50;;;;;;;9.52;51.09;99919.27;117271;1185;23553;-48
2022/04/11 05:51:38;;;;;;;4.80;1.80;;;;;;;9.62;51.15;99925.24;117527;1186;23553;-57
2022/04/11 05:54:07;;;;;;;3.70;1.80;;;;;;;9.66;50.97;99930.61;117503;1185;21850;-57
2022/04/11 05:56:36;;;;;;;4.10;2.00;;;;;;;9.67;50.80;99927.27;117192;1186;23452;-57
2022/04/11 05:59:05;;;;;;;3.10;1.70;;;;;;;9.67;50.83;99924.99;117263;1186;23611;-58
2022/04/11 06:01:37;;;;;;;52.30;22.30;;;;;;;9.67;50.84;99922.89;117311;1186;21890;-49
2022/04/11 06:04:07;;;;;;;55.90;27.80;;;;;;;9.67;50.84;99918.16;117169;1185;23646;-58
2022/04/11 06:06:38;;;;;;;7.30;4.50;;;;;;;9.67;50.84;99912.55;117231;1185;23753;-49
2022/04/11 06:09:27;;;;;;;6.70;2.80;;;;;;;9.69;50.73;99915.16;117131;1182;21853;-49
2022/04/11 06:11:57;;;;;;;4.20;2.40;;;;;;;9.71;50.84;99912.30;117568;1185;23665;-49
2022/04/11 06:14:46;;;;;;;4.00;2.20;;;;;;;9.74;50.93;99908.05;117199;1185;21908;-58
2022/04/11 06:17:14;;;;;;;5.20;2.60;;;;;;;9.78;50.91;99907.28;119357;1186;21701;-59
2022/04/11 06:19:42;;;;;;;4.80;2.50;;;;;;;9.86;50.95;99908.22;119380;1184;21673;-56
2022/04/11 06:22:12;;;;;;;5.20;2.40;;;;;;;9.89;50.92;99902.20;119541;1184;22247;-48
2022/04/11 06:24:44;;;;;;;4.20;1.80;;;;;;;9.89;50.92;99895.73;117291;1186;21863;-48
2022/04/11 06:27:13;;;;;;;3.10;1.90;;;;;;;9.89;50.93;99894.31;117972;1185;21854;-57
2022/04/11 06:29:42;;;;;;;5.10;2.30;;;;;;;9.90;50.76;99891.86;117347;1185;24140;-48
2022/04/11 06:32:10;;;;;;;53.40;16.00;;;;;;;9.91;50.88;99886.58;117348;1186;21846;-58
2022/04/11 06:34:39;;;;;;;26.00;11.40;;;;;;;9.93;50.86;99881.27;117322;1186;24012;-48
2022/04/11 06:37:08;;;;;;;7.70;5.00;;;;;;;9.97;51.02;99877.17;117289;1186;23643;-49
2022/04/11 06:39:36;;;;;;;5.10;3.60;;;;;;;10.02;50.97;99874.11;117312;1186;23556;-49
2022/04/11 06:42:07;;;;;;;4.00;2.10;;;;;;;10.08;51.03;99881.19;117314;1186;21909;-57
2022/04/11 06:44:37;;;;;;;4.20;2.00;;;;;;;10.18;51.19;99889.24;117294;1181;22931;-47
2022/04/11 06:47:06;;;;;;;3.80;1.90;;;;;;;10.26;51.03;99889.45;117277;1186;23582;-57
2022/04/11 06:49:36;;;;;;;4.50;1.80;;;;;;;10.36;51.08;99886.98;117259;1185;21854;-48
2022/04/11 06:52:06;;;;;;;3.40;1.80;;;;;;;10.45;51.12;99891.40;117363;1186;21889;-57
2022/04/11 06:54:34;;;;;;;4.00;1.90;;;;;;;10.52;51.13;99897.40;117295;1186;22929;-57
2022/04/11 06:57:04;;;;;;;3.90;2.20;;;;;;;10.56;51.09;99895.94;117368;1186;23273;-48
2022/04/11 06:59:33;;;;;;;3.50;1.80;;;;;;;10.53;51.36;99902.83;117338;1185;21859;-49
2022/04/11 07:02:02;;;;;;;3.60;1.70;;;;;;;10.56;51.37;99900.67;117261;1185;21948;-48
2022/04/11 07:04:31;;;;;;;4.90;2.00;;;;;;;10.56;51.24;99902.26;117279;1186;23541;-57
2022/04/11 07:06:59;;;;;;;3.00;1.60;;;;;;;10.56;51.21;99902.76;119227;1185;22752;-49
2022/04/11 07:09:32;;;;;;;2.80;1.80;;;;;;;10.55;51.22;99898.21;117339;1181;21851;-48
2022/04/11 07:12:01;;;;;;;4.50;1.90;;;;;;;10.54;51.10;99895.44;117305;1185;23057;-57
2022/04/11 07:14:33;;;;;;;4.10;1.60;;;;;;;10.53;51.15;99891.60;117253;1185;23457;-49
2022/04/11 07:17:07;;;;;;;3.50;1.70;;;;;;;10.53;51.19;99890.71;117374;1181;23577;-57
2022/04/11 07:19:35;;;;;;;3.90;1.80;;;;;;;10.57;51.19;99889.59;117272;1185;22820;-57
2022/04/11 07:22:23;;;;;;;3.00;1.70;;;;;;;10.64;51.29;99889.26;117194;1184;21844;-48
2022/04/11 07:24:53;;;;;;;2.50;1.40;;;;;;;10.73;51.45;99883.30;117282;1185;22807;-48
2022/04/11 07:27:21;;;;;;;3.00;1.60;;;;;;;10.81;51.45;99891.02;117356;1185;23579;-48
2022/04/11 07:29:50;;;;;;;3.10;1.60;;;;;;;10.91;51.27;99889.41;117644;1186;22043;-58
2022/04/11 07:32:18;;;;;;;3.60;2.00;;;;;;;10.98;51.41;99888.04;117212;1186;21838;-48
2022/04/11 07:34:47;;;;;;;3.60;1.60;;;;;;;11.05;51.32;99893.34;117202;1189;22626;-48
2022/04/11 07:37:16;;;;;;;3.70;1.70;;;;;;;11.14;51.38;99898.73;117174;1186;21866;-57
2022/04/11 07:39:56;;;;;;;3.70;1.40;;;;;;;11.25;51.31;99903.23;117380;1186;22512;-48
2022/04/11 07:42:24;;;;;;;4.00;1.60;;;;;;;11.34;51.21;99906.02;117276;1184;23575;-48
2022/04/11 07:44:53;;;;;;;5.10;2.00;;;;;;;11.43;51.28;99906.54;117265;1184;23569;-48
2022/04/11 07:47:22;;;;;;;4.00;1.60;;;;;;;11.51;51.26;99905.47;117249;1186;21977;-48
2022/04/11 07:49:52;;;;;;;2.40;1.60;;;;;;;11.55;51.18;99906.95;117356;1186;21941;-57
2022/04/11 07:52:21;;;;;;;3.60;1.90;;;;;;;11.58;51.18;99906.52;117248;1185;23582;-49
2022/04/11 07:54:50;;;;;;;3.80;1.60;;;;;;;11.58;50.98;99905.80;117216;1186;21898;-48
2022/04/11 07:57:19;;;;;;;3.30;2.10;;;;;;;11.58;51.04;99907.39;117340;1184;23566;-48
2022/04/11 08:00:08;;;;;;;6.00;2.10;;;;;;;11.64;50.86;99905.33;117166;1186;23551;-48
2022/04/11 08:02:37;;;;;;;3.30;1.70;;;;;;;11.61;50.37;99906.09;119231;1185;21824;-49
2022/04/11 08:05:06;;;;;;;3.50;1.90;;;;;;;11.61;50.51;99905.74;119294;1185;22237;-49
2022/04/11 08:07:37;;;;;;;5.40;1.90;;;;;;;11.67;50.62;99904.38;119216;1185;21766;-58
2022/04/11 08:10:06;;;;;;;3.40;2.10;;;;;;;11.66;50.68;99905.12;119285;1185;21835;-50
2022/04/11 08:12:36;;;;;;;3.90;2.30;;;;;;;11.63;50.61;99896.55;119273;1185;21759;-49
2022/04/11 08:15:05;;;;;;;3.50;1.40;;;;;;;11.65;50.72;99897.73;119304;1185;22171;-58
2022/04/11 08:17:50;;;;;;;3.40;1.50;;;;;;;11.70;50.68;99894.46;119275;1184;21846;-58
2022/04/11 08:20:18;;;;;;;3.30;1.60;;;;;;;11.75;50.78;99897.30;119299;1185;21768;-50
2022/04/11 08:23:07;;;;;;;2.80;1.40;;;;;;;11.81;50.67;99904.58;119181;1186;21763;-58
2022/04/11 08:25:35;;;;;;;4.10;1.50;;;;;;;11.85;50.73;99908.50;119111;1187;21796;-58
2022/04/11 08:28:04;;;;;;;3.40;1.30;;;;;;;11.92;50.69;99911.31;119230;1185;21766;-57
2022/04/11 08:30:33;;;;;;;3.60;1.30;;;;;;;11.97;50.62;99908.88;119250;1185;22252;-58
2022/04/11 08:33:03;;;;;;;3.70;2.10;;;;;;;11.96;50.71;99905.94;119176;1186;21775;-59
2022/04/11 08:35:32;;;;;;;3.80;1.80;;;;;;;11.98;50.60;99907.48;119263;1185;22259;-50
2022/04/11 08:38:00;;;;;;;3.10;1.80;;;;;;;12.03;50.48;99911.58;119324;1184;21783;-58
2022/04/11 08:40:39;;;;;;;3.80;1.90;;;;;;;12.09;50.33;99913.91;119401;1185;21803;-58
2022/04/11 08:43:09;;;;;;;2.50;1.60;;;;;;;12.09;50.28;99923.05;119359;1185;22118;-58
2022/04/11 08:45:43;;;;;;;3.50;1.70;;;;;;;12.07;50.48;99921.17;119355;1185;21821;-58
2022/04/11 08:48:12;;;;;;;3.00;1.60;;;;;;;12.10;50.46;99923.73;119354;1184;21845;-58
2022/04/11 08:50:41;;;;;;;6.00;2.00;;;;;;;12.15;50.46;99929.06;119267;1184;21785;-50
2022/04/11 08:53:10;;;;;;;3.00;1.60;;;;;;;12.20;50.53;99935.60;119414;1185;21837;-58
2022/04/11 08:55:38;;;;;;;3.10;1.70;;;;;;;12.21;50.37;99948.95;119191;1185;22282;-58
2022/04/11 08:58:07;;;;;;;3.60;2.00;;;;;;;12.12;50.05;99944.42;119368;1185;22126;-52
2022/04/11 09:00:35;;;;;;;3.60;1.80;;;;;;;12.00;50.27;99939.62;119358;1185;21797;-58
2022/04/11 09:03:05;;;;;;;3.70;1.80;;;;;;;12.04;50.04;99939.89;119373;1185;21818;-58
2022/04/11 09:05:34;;;;;;;3.50;1.60;;;;;;;12.12;49.89;99943.57;119240;1185;21769;-58
2022/04/11 09:08:10;;;;;;;5.50;1.80;;;;;;;12.07;50.26;99957.41;119160;1186;22293;-58
2022/04/11 09:10:38;;;;;;;3.60;1.90;;;;;;;12.06;50.18;99966.21;119360;1185;21827;-49
2022/04/11 09:13:08;;;;;;;5.20;2.30;;;;;;;12.09;50.14;99971.60;119153;1184;21770;-52
2022/04/11 09:15:40;;;;;;;7.40;2.80;;;;;;;12.12;50.21;99977.86;119341;1185;21772;-51
2022/04/11 09:18:09;;;;;;;4.20;2.40;;;;;;;12.18;50.37;99972.77;119408;1185;21838;-58
2022/04/11 09:20:41;;;;;;;4.80;2.00;;;;;;;12.20;50.15;99973.61;119042;1186;22725;-59
2022/04/11 09:23:21;;;;;;;3.90;2.00;;;;;;;12.18;50.18;99970.66;118699;1184;23947;-48
2022/04/11 09:25:50;;;;;;;4.70;2.30;;;;;;;12.18;50.33;99973.11;118709;1184;23275;-49
2022/04/11 09:28:20;;;;;;;5.10;2.70;;;;;;;12.19;50.26;99970.48;119178;1185;21769;-49
2022/04/11 09:30:49;;;;;;;4.70;2.10;;;;;;;12.17;50.13;99971.04;119371;1185;21687;-56
2022/04/11 09:33:19;;;;;;;4.20;2.10;;;;;;;12.14;50.06;99969.52;119275;1185;22201;-57
2022/04/11 09:35:48;;;;;;;3.90;2.00;;;;;;;12.10;49.99;99966.64;119201;1186;22177;-50
2022/04/11 09:38:21;;;;;;;3.10;2.00;;;;;;;12.06;49.94;99965.34;119357;1183;21812;-58
2022/04/11 09:40:51;;;;;;;3.90;1.90;;;;;;;12.06;49.97;99972.02;119403;1184;21790;-59
2022/04/11 09:43:27;;;;;;;3.80;2.10;;;;;;;12.17;49.93;99966.46;119179;1185;21844;-49
2022/04/11 09:45:57;;;;;;;2.80;1.70;;;;;;;12.12;49.74;99966.25;119310;1184;21833;-49
2022/04/11 09:48:30;;;;;;;3.50;1.90;;;;;;;12.03;50.06;99959.59;119285;1185;21749;-49
2022/04/11 09:50:59;;;;;;;2.90;1.90;;;;;;;12.06;49.98;99961.30;119368;1185;21771;-56
2022/04/11 09:53:32;;;;;;;3.20;2.10;;;;;;;12.08;50.10;99957.20;119255;1186;21774;-57
2022/04/11 09:56:04;;;;;;;5.20;2.40;;;;;;;12.11;49.95;99951.67;119300;1185;21780;-56
2022/04/11 09:58:34;;;;;;;5.10;2.10;;;;;;;12.14;49.90;99950.54;119355;1185;21805;-58
2022/04/11 10:01:03;;;;;;;4.20;2.10;;;;;;;12.10;49.99;99951.52;119323;1185;21755;-56
2022/04/11 10:03:32;;;;;;;5.70;2.30;;;;;;;12.12;49.97;99951.12;119358;1184;22482;-50
2022/04/11 10:06:02;;;;;;;3.40;2.10;;;;;;;12.14;49.98;99951.74;119371;1185;21763;-49
2022/04/11 10:08:31;;;;;;;5.10;2.60;;;;;;;12.13;49.94;99956.70;119372;1185;21829;-48
2022/04/11 10:11:01;;;;;;;3.90;2.30;;;;;;;12.10;49.79;99958.02;119392;1185;21767;-48
2022/04/11 10:13:32;;;;;;;3.20;1.80;;;;;;;12.20;49.79;99954.78;119272;1185;21787;-50
2022/04/11 10:16:13;;;;;;;;;;;;;;;12.23;49.58;99953.84;119374;1185;21867;-56
2022/04/11 10:18:41;;;;;;;5.30;2.20;;;;;;;12.21;49.37;99956.70;119335;1185;21822;-57
2022/04/11 10:21:27;;;;;;;3.50;2.20;;;;;;;12.15;49.39;99955.78;119341;1185;21762;-57
2022/04/11 10:24:04;;;;;;;4.20;2.10;;;;;;;12.11;49.48;99956.95;119322;1185;22222;-57
2022/04/11 10:26:47;;;;;;;4.50;3.10;;;;;;;12.08;49.53;99956.48;119347;1185;21770;-56
2022/04/11 10:29:29;;;;;;;4.90;2.10;;;;;;;12.06;49.40;99959.00;119240;1185;21755;-56
2022/04/11 10:32:20;;;;;;;4.60;2.30;;;;;;;11.97;49.85;99964.64;119364;1184;21793;-49
2022/04/11 10:34:54;;;;;;;3.10;1.80;;;;;;;12.00;49.88;99965.30;119400;1185;21820;-50
2022/04/11 10:37:24;;;;;;;6.30;3.00;;;;;;;12.05;49.85;99962.38;119366;1183;21765;-49
2022/04/11 10:39:52;;;;;;;4.80;2.40;;;;;;;12.13;50.11;99958.83;119367;1182;21848;-50
2022/04/11 10:42:22;;;;;;;6.20;2.40;;;;;;;12.23;50.13;99958.23;119118;1186;22289;-49
2022/04/11 10:44:53;;;;;;;4.80;1.90;;;;;;;12.28;49.83;99962.66;119364;1185;21761;-49
2022/04/11 10:47:31;;;;;;;6.00;2.20;;;;;;;12.31;49.79;99961.89;119383;1185;21763;-52
2022/04/11 10:50:04;;;;;;;4.30;2.40;;;;;;;12.30;49.63;99967.73;119254;1185;21744;-56
2022/04/11 10:52:41;;;;;;;4.70;2.00;;;;;;;12.27;49.46;99964.98;119389;1185;21774;-57
2022/04/11 10:55:15;;;;;;;4.40;2.10;;;;;;;12.23;49.53;99972.13;119408;1185;22311;-57
2022/04/11 10:57:44;;;;;;;5.60;2.00;;;;;;;12.17;49.64;99974.73;119353;1185;21827;-55
2022/04/11 11:00:17;;;;;;;7.50;3.80;;;;;;;12.14;49.66;99980.09;119237;1186;21830;-49
2022/04/11 11:02:49;;;;;;;4.50;2.30;;;;;;;12.12;49.58;99980.84;119289;1186;21813;-56
2022/04/11 11:05:36;;;;;;;3.80;1.90;;;;;;;12.13;49.46;99984.15;119344;1185;21779;-59
2022/04/11 11:08:14;;;;;;;5.20;2.40;;;;;;;12.18;49.62;99988.58;119306;1185;21761;-56
2022/04/11 11:11:24;;;;;;;4.40;1.80;;;;;;;12.24;49.60;99978.78;119373;1185;21822;-49
2022/04/11 11:13:54;;;;;;;4.80;2.70;;;;;;;12.27;49.77;99981.52;117630;1185;23469;-49
2022/04/11 11:16:34;;;;;;;4.10;2.00;;;;;;;12.25;49.65;99981.75;117046;1181;25799;-57
2022/04/11 11:19:20;;;;;;;4.70;2.20;;;;;;;12.23;49.54;99983.91;119361;1185;22072;-58
2022/04/11 11:21:56;;;;;;;4.10;2.10;;;;;;;12.21;49.54;99990.09;119377;1186;21783;-58
2022/04/11 11:24:25;;;;;;;4.40;2.30;;;;;;;12.22;49.71;100000.11;119327;1186;22003;-57
2022/04/11 11:27:03;;;;;;;5.70;2.10;;;;;;;12.21;49.46;100000.30;119191;1182;21740;-57
2022/04/11 11:29:43;;;;;;;3.20;1.90;;;;;;;12.21;49.67;100004.35;119394;1185;21822;-49
2022/04/11 11:32:12;;;;;;;3.50;2.00;;;;;;;12.22;49.55;99996.06;119244;1185;22326;-49
2022/04/11 11:34:42;;;;;;;7.00;2.50;;;;;;;12.24;49.47;99994.27;119392;1184;22269;-50
2022/04/11 11:37:14;;;;;;;4.60;2.20;;;;;;;12.27;49.78;99993.11;119374;1185;21806;-50
2022/04/11 11:39:43;;;;;;;4.40;2.30;;;;;;;12.36;49.38;99991.48;119140;1185;21857;-57
2022/04/11 11:42:18;;;;;;;5.00;2.20;;;;;;;12.47;49.52;99989.80;119365;1185;21839;-58
2022/04/11 11:44:48;;;;;;;4.80;2.20;;;;;;;12.54;49.56;99993.50;118750;1185;21898;-48
2022/04/11 11:47:17;;;;;;;7.20;2.40;;;;;;;12.60;49.64;99989.45;119357;1184;21818;-50
2022/04/11 11:50:05;;;;;;;3.60;2.00;;;;;;;12.67;49.49;99996.14;119156;1186;22492;-52